Aérodrome :
LOGIN :

S'inscrire | Disclaimer

   EN    FR    IT 

 










Légende :    VFR   VFR Marginal   IFR   IFR Intensif   IFR Très Intensif
Visi : 
Plafond : 
>= 8 km
>= 3000ft
5 à 8 km
1000 à 3000 ft
1500m à 5 km
500 à 1000 ft
800 à 1500m
200 à 500 ft
< 800m
< 200 ft
Symboles :   Orages  Brouillard  Fortes neiges  Fortes précipitations  Vent > 20 kt
SIGMETs :   Divers  Orages  Givrage  Turbulence  Onde Orograph.  Cendres Volcan.







- Altitude de l'aérodrome : 622 ft
- Code IATA : BRS
- Voir les cartes d'approche


EGGD - Bristol Int.

DERNIER METAR :
  • 230150Z AUTO 26011KT 9999 OVC004 08/08 Q1014

METARs EXPIRÉS :
  • 230120Z AUTO 26013KT 9999 BKN006 OVC012 09/07 Q1014
  • 230050Z AUTO 26017KT 9999 OVC006 09/07 Q1014
  • 230020Z AUTO 26016KT 9999 OVC007 09/07 Q1014
  • 222350Z AUTO 26017KT 9999 OVC006 08/07 Q1014
  • 222320Z AUTO 26013KT 9999 OVC006 09/07 Q1014

TAF AMD TAF EGGD
Valide du 23 à 01h jusqu'au 24 à 00h UTC


230146Z 2301/2324 26012KT 9999 BKN007
TEMPO 2301/2307 7000 BKN004
BECMG 2307/2310 SCT030
BECMG 2320/2323 20010KT 8000 -RA BKN010
TEMPO 2321/2324 4000 RADZ BKN006
ATIS : +44 1275 473 666
Pas de NOTAMs connus pour ce terrain.



MET'MAP, la Météo Aéronautique d'un coup d'oeil ! - Copyright ORBIFLY Décembre 2007 - Disclaimer

ORBIFLY MET'MAP TEAM :

Programmation & Développement : Alexandra Zaïnal
Conception & Développement : Baudouin d'Aumeries
Co-Programmation & Développement : Marc-Olivier Méhu
Soutien technique & logistique : Manuel Goepfert

Contact : metmap@orbifly.com




SOURCES & CREDITS :

   NOAA